Seneca Rocks, WV (26884)

8:15 PM EDT en Abril 26, 2015 (GMT -0400)
Dogs Run Farm | | Change Station
CLOSE
Current Station
Estación meteorológica personal
Location: Dryfork, WV
Altura: 2910 ft
Estaciones meteorológicas cercanas

Alt 2910 ft 38.98 °N, 79.43 °W | Updated 1 minute ago

Despejado
Despejado
47.3 ° F
Sensación térmica 47 ° F
N
0.0
Viento Variable Viento desde ENE

Hoy
Alta -- | Baja -- ° F
--% Posibilidad de precipitaciones
Ayer
Alta -- | Baja -- ° F
Precip. -- pul
6:26 AM 8:04 PM
Cuarto creciente, 60% visible
Presión 29.73 pul
Visibilidad 10.0 Millas
Nubes Despejado
Vientos helados 47 ° F
Punto de rocío 28 ° F
Humedad 47%
Precipitaciones 0.00 pul
Espesor de la nieve No disponible.
UV 0 de una escala de 12
Polen 6.80 de una escala de 12
Calidad del aire No disponible.
Flu Activity Sporadic
METAR KW99 262355Z AUTO 32007KT 10SM CLR 14/M04 A2973 RMK AO2 T01431042 10165 20131

More Conditions Fewer Conditions

Presión 29.73 pul
Visibilidad 10.0 Millas
Nubes Despejado
Vientos helados 47 ° F
Punto de rocío 28 ° F
Humedad 47%
Precipitaciones 0.00 pul
Espesor de la nieve No disponible.
UV 0 de una escala de 12
Polen 6.80 de una escala de 12
Calidad del aire No disponible.
Flu Activity Sporadic
METAR KW99 262355Z AUTO 32007KT 10SM CLR 14/M04 A2973 RMK AO2 T01431042 10165 20131

More Conditions Fewer Conditions

The full scope of the disaster following a powerful 7.8-magnitude earthquake in Nepal may not come into view for days, but global charities are already sending emergency aid. Click to see how you can help.

10-Day Weather Forecast

Almanac

Astronomía

Apr. 26, 2015 Salida Puesta
Hora real
Crepúsculo civil
Crepúsculo náutico
Crepúsculo astronómico
Luna
Horas de luz
Horas de luz
Tomorrow will be .
, % of the Moon is Illuminated

Extremos de hoy

Máximos del estado Bajos del estado

Community

WunderPhotos

Upload Photos

1,817,171 ¡fotos cargadas!

WunderBlogs® & News

Nearby

Calidad del aire

  Calidad del aire Índice AQ Contaminante
Not available.

Grosos de nieve

Estación Profundido Altura

Actividad de terremotos

Ciudad Distance Mag. Tiempo y dato
Magnitud mínima muestra es 2,5.

Temperaturas de aguas costeras

Lugar Temperatura

Stations

Estaciones meteorológicas cercanas

Ubicación de la estación Temp. Vientos helados Punto de rocío Humedad Viento Precip. Alt Actualizado Tipo